Navig8 Saiph — V7SU2 — position and weather

sailwx.info

Track history (hours):
 
Tides and Currents Weather Stations Pressure Air Temp Water Temp Dewpoint Dewpoint Depression Visibility Wind Speed Wind Dir Waves Ship Positions

Navig8 Saiph

Last reported at 2018-Feb-16 08:51 UTC. Time now 2018-Feb-18 23:58 UTC.
Position N 37°34' W 029°60'.

Length 153 m; draft 6.9 m.

Type: Tanker. MMSI: 538006894.

Date/timePositionNaut miles runAvg speedWind from/ knotsBaromVisibWave heightAir tempDewpointWater temp
2018-Feb-16 08:51N 37°34' W 029°60'514.1
2018-Feb-16 08:30N 37°35' W 029°54'714.2
2018-Feb-16 08:00N 37°37' W 029°45'814.4
2018-Feb-16 07:26N 37°40' W 029°35'614.3
2018-Feb-16 07:00N 37°42' W 029°28'714.7
2018-Feb-16 06:31N 37°44' W 029°19'714.4
2018-Feb-16 06:00N 37°46' W 029°10'714.4
2018-Feb-16 05:30N 37°48' W 029°02'714.4
2018-Feb-16 05:00N 37°50' W 028°53'714.6
2018-Feb-16 04:30N 37°52' W 028°44'714.5
2018-Feb-16 04:00N 37°54' W 028°35'714.3
2018-Feb-16 03:30N 37°56' W 028°27'714.4
2018-Feb-16 03:01N 37°59' W 028°18'714.8
2018-Feb-16 02:30N 38°01' W 028°09'714.7
2018-Feb-16 02:00N 38°03' W 028°00'714.7
2018-Feb-16 01:30N 38°04' W 027°51'714.3
2018-Feb-16 01:00N 38°06' W 027°42'714.6
2018-Feb-16 00:31N 38°08' W 027°33'714.4
2018-Feb-16 00:00N 38°10' W 027°25'714.4
2018-Feb-15 23:30N 38°13' W 027°16'714.7
2018-Feb-15 23:00N 38°15' W 027°07'714.6
2018-Feb-15 22:30N 38°17' W 026°58'714.7
2018-Feb-15 22:00N 38°19' W 026°49'814.8
2018-Feb-15 21:29N 38°21' W 026°39'714.6
2018-Feb-15 21:00N 38°23' W 026°31'714.7
2018-Feb-15 20:30N 38°25' W 026°22'714.7
2018-Feb-15 20:00N 38°27' W 026°13'1714.5
2018-Feb-15 18:52N 38°32' W 025°53'614.2
2018-Feb-15 18:25N 38°34' W 025°45'614.0
2018-Feb-15 18:00N 38°36' W 025°38'714.1
2018-Feb-15 17:31N 38°39' W 025°30'814.2
2018-Feb-15 16:59N 38°41' W 025°21'714.1
2018-Feb-15 16:29N 38°43' W 025°12'714.0
2018-Feb-15 16:00N 38°45' W 025°04'714.0
2018-Feb-15 15:30N 38°47' W 024°55'714.2
2018-Feb-15 15:00N 38°49' W 024°46'714.1
2018-Feb-15 14:30N 38°51' W 024°38'  
2018-Feb-11 02:25N 49°48' W 003°47'1410.1
2018-Feb-11 01:03N 49°53' W 003°27'210.3
2018-Feb-11 00:51N 49°54' W 003°24'310.3
2018-Feb-11 00:30N 49°55' W 003°19'510.1
2018-Feb-11 00:00N 49°56' W 003°11'611.2
2018-Feb-10 23:30N 49°58' W 003°03'611.3
2018-Feb-10 22:59N 49°59' W 002°54'611.7
2018-Feb-10 22:27N 50°01' W 002°45'612.2
2018-Feb-10 22:00N 50°03' W 002°36'1312.2
2018-Feb-10 20:55N 50°06' W 002°16'512.1
2018-Feb-10 20:30N 50°07' W 002°09'611.7
2018-Feb-10 20:00N 50°09' W 002°00'611.5
2018-Feb-10 19:30N 50°11' W 001°52'510.9
2018-Feb-10 19:01N 50°12' W 001°44'510.3
2018-Feb-10 18:30N 50°14' W 001°36'510.0
2018-Feb-10 18:00N 50°15' W 001°28'5 9.6
2018-Feb-10 17:30N 50°16' W 001°21'5 9.8
2018-Feb-10 17:00N 50°17' W 001°13'3210.4
2018-Feb-10 13:58N 50°26' W 000°26'711.8
2018-Feb-10 13:23N 50°28' W 000°15'512.3
2018-Feb-10 13:00N 50°30' W 000°09'612.4
2018-Feb-10 12:30N 50°32' E 000°01'612.6
2018-Feb-10 12:00N 50°33' E 000°11'612.9
2018-Feb-10 11:30N 50°35' E 000°20'612.9
2018-Feb-10 11:00N 50°36' E 000°30'713.0
2018-Feb-10 10:30N 50°38' E 000°40'713.2
2018-Feb-10 10:00N 50°42' E 000°48'713.1
2018-Feb-10 09:30N 50°46' E 000°56'712.9
2018-Feb-10 08:57N 50°51' E 001°05'612.7
2018-Feb-10 08:29N 50°55' E 001°12'612.5
2018-Feb-10 07:59N 50°60' E 001°19'612.3
2018-Feb-10 07:30N 51°03' E 001°26'612.7
2018-Feb-10 07:00N 51°08' E 001°33'613.0
2018-Feb-10 06:30N 51°12' E 001°41'713.2
2018-Feb-10 06:00N 51°17' E 001°48'714.3
2018-Feb-10 05:31N 51°23' E 001°53'714.3
2018-Feb-10 05:00N 51°29' E 001°59'714.6
2018-Feb-10 04:31N 51°35' E 002°07'714.7
2018-Feb-10 04:00N 51°40' E 002°16'714.7
2018-Feb-10 03:30N 51°45' E 002°24'1614.3
2018-Feb-10 02:23N 51°57' E 002°42'513.9
2018-Feb-10 02:00N 52°00' E 002°48'612.4
2018-Feb-10 01:29N 52°02' E 002°58'612.4
2018-Feb-10 01:00N 52°03' E 003°08'612.5
2018-Feb-10 00:30N 52°03' E 003°18'712.1
2018-Feb-09 23:56N 52°07' E 003°27'511.6
2018-Feb-09 23:29N 52°09' E 003°35'1 0.7
2018-Feb-09 22:48N 52°09' E 003°36'0 0.0
2018-Feb-09 22:42N 52°09' E 003°36'4 0.1
2018-Feb-08 01:11N 52°05' E 003°41'210.8
2018-Feb-08 01:00N 52°05' E 003°44'510.6
2018-Feb-08 00:30N 52°03' E 003°52'4 7.6
2018-Feb-08 00:00N 52°02' E 003°58'713.1
2018-Feb-07 23:30N 51°59' E 004°07'714.2
2018-Feb-07 23:01N 51°54' E 004°16'3 5.5
2018-Feb-07 22:29N 51°53' E 004°21'0 0.0
2018-Feb-07 21:56N 51°53' E 004°21'0 0.0
2018-Feb-07 21:29N 51°53' E 004°21'0 0.0
2018-Feb-07 09:28N 51°53' E 004°21'0 0.0
2018-Feb-07 08:58N 51°53' E 004°21'0 0.0
2018-Feb-07 08:28N 51°53' E 004°21'0 0.0
2018-Feb-07 07:58N 51°53' E 004°21'0 0.0
2018-Feb-07 07:25N 51°53' E 004°21'0 0.0
2018-Feb-07 06:43N 51°53' E 004°21'0 0.0
2018-Feb-07 06:13N 51°53' E 004°21'0 0.0
2018-Feb-07 05:58N 51°53' E 004°21'0 0.0
2018-Feb-07 05:28N 51°53' E 004°21'0 0.0
2018-Feb-07 04:52N 51°53' E 004°21'0 0.0
2018-Feb-07 04:28N 51°53' E 004°21'0 0.0
2018-Feb-07 03:55N 51°53' E 004°21'0 0.0
2018-Feb-07 03:19N 51°53' E 004°21'0 0.0
2018-Feb-07 02:58N 51°53' E 004°21'0 0.0
2018-Feb-07 02:25N 51°53' E 004°21'0 0.0
2018-Feb-07 01:58N 51°53' E 004°21'0 0.0
2018-Feb-07 01:25N 51°53' E 004°21'0 0.0
2018-Feb-07 00:58N 51°53' E 004°21'0 0.0
2018-Feb-07 00:28N 51°53' E 004°21'0 0.0
2018-Feb-06 23:58N 51°53' E 004°21'0 0.0
2018-Feb-06 23:28N 51°53' E 004°21'0 0.0
2018-Feb-06 22:58N 51°53' E 004°21'0 0.0
2018-Feb-06 22:22N 51°53' E 004°21'0 0.0
2018-Feb-06 21:52N 51°53' E 004°21'0 0.0
2018-Feb-06 21:28N 51°53' E 004°21'0 0.0
2018-Feb-06 20:58N 51°53' E 004°21'0 0.0
2018-Feb-06 20:25N 51°53' E 004°21'0 0.0
2018-Feb-06 19:55N 51°53' E 004°21'0 0.0
2018-Feb-06 19:25N 51°53' E 004°21'0 0.0
2018-Feb-06 18:52N 51°53' E 004°21'0 0.0
2018-Feb-06 18:28N 51°53' E 004°21'0 0.0
2018-Feb-06 17:58N 51°53' E 004°21'0 0.0
2018-Feb-06 17:28N 51°53' E 004°21'0 0.0
2018-Feb-06 16:58N 51°53' E 004°21'0 0.0
2018-Feb-06 16:25N 51°53' E 004°21'0 0.0
2018-Feb-06 15:52N 51°53' E 004°21'0 0.0
2018-Feb-06 15:25N 51°53' E 004°21'0 0.0
2018-Feb-06 14:58N 51°53' E 004°21'0 0.0
2018-Feb-06 14:28N 51°53' E 004°21'0 0.0
2018-Feb-06 13:55N 51°53' E 004°21'0 0.0
2018-Feb-06 13:19N 51°53' E 004°21'0 0.0
2018-Feb-06 12:55N 51°53' E 004°21'0 0.0
2018-Feb-06 12:27N 51°53' E 004°21'0 0.0
2018-Feb-06 12:00N 51°53' E 004°21'0 0.0
2018-Feb-06 11:24N 51°53' E 004°21'0 0.0
2018-Feb-06 11:00N 51°53' E 004°21'0 0.0
2018-Feb-06 10:30N 51°53' E 004°21'0 0.0
2018-Feb-06 10:00N 51°53' E 004°21'0 0.0
2018-Feb-06 09:30N 51°53' E 004°21'0 0.0
2018-Feb-06 09:00N 51°53' E 004°21'  
Track history (hours):
 
Tides and Currents Weather Stations Pressure Air Temp Water Temp Dewpoint Dewpoint Depression Visibility Wind Speed Wind Dir Waves Ship Positions

Navig8 Saiph

Last reported at 2018-Feb-16 08:51 UTC. Time now 2018-Feb-18 23:58 UTC.
Position N 37°34' W 029°60'.

Length 153 m; draft 6.9 m.

Type: Tanker. MMSI: 538006894.

Date/timePositionNaut miles runAvg speedWind from/ knotsBaromVisibWave heightAir tempDewpointWater temp
2018-Feb-16 08:51N 37°34' W 029°60'514.1
2018-Feb-16 08:30N 37°35' W 029°54'714.2
2018-Feb-16 08:00N 37°37' W 029°45'814.4
2018-Feb-16 07:26N 37°40' W 029°35'614.3
2018-Feb-16 07:00N 37°42' W 029°28'714.7
2018-Feb-16 06:31N 37°44' W 029°19'714.4
2018-Feb-16 06:00N 37°46' W 029°10'714.4
2018-Feb-16 05:30N 37°48' W 029°02'714.4
2018-Feb-16 05:00N 37°50' W 028°53'714.6
2018-Feb-16 04:30N 37°52' W 028°44'714.5
2018-Feb-16 04:00N 37°54' W 028°35'714.3
2018-Feb-16 03:30N 37°56' W 028°27'714.4
2018-Feb-16 03:01N 37°59' W 028°18'714.8
2018-Feb-16 02:30N 38°01' W 028°09'714.7
2018-Feb-16 02:00N 38°03' W 028°00'714.7
2018-Feb-16 01:30N 38°04' W 027°51'714.3
2018-Feb-16 01:00N 38°06' W 027°42'714.6
2018-Feb-16 00:31N 38°08' W 027°33'714.4
2018-Feb-16 00:00N 38°10' W 027°25'714.4
2018-Feb-15 23:30N 38°13' W 027°16'714.7
2018-Feb-15 23:00N 38°15' W 027°07'714.6
2018-Feb-15 22:30N 38°17' W 026°58'714.7
2018-Feb-15 22:00N 38°19' W 026°49'814.8
2018-Feb-15 21:29N 38°21' W 026°39'714.6
2018-Feb-15 21:00N 38°23' W 026°31'714.7
2018-Feb-15 20:30N 38°25' W 026°22'714.7
2018-Feb-15 20:00N 38°27' W 026°13'1714.5
2018-Feb-15 18:52N 38°32' W 025°53'614.2
2018-Feb-15 18:25N 38°34' W 025°45'614.0
2018-Feb-15 18:00N 38°36' W 025°38'714.1
2018-Feb-15 17:31N 38°39' W 025°30'814.2
2018-Feb-15 16:59N 38°41' W 025°21'714.1
2018-Feb-15 16:29N 38°43' W 025°12'714.0
2018-Feb-15 16:00N 38°45' W 025°04'714.0
2018-Feb-15 15:30N 38°47' W 024°55'714.2
2018-Feb-15 15:00N 38°49' W 024°46'714.1
2018-Feb-15 14:30N 38°51' W 024°38'  
2018-Feb-11 02:25N 49°48' W 003°47'1410.1
2018-Feb-11 01:03N 49°53' W 003°27'210.3
2018-Feb-11 00:51N 49°54' W 003°24'310.3
2018-Feb-11 00:30N 49°55' W 003°19'510.1
2018-Feb-11 00:00N 49°56' W 003°11'611.2
2018-Feb-10 23:30N 49°58' W 003°03'611.3
2018-Feb-10 22:59N 49°59' W 002°54'611.7
2018-Feb-10 22:27N 50°01' W 002°45'612.2
2018-Feb-10 22:00N 50°03' W 002°36'1312.2
2018-Feb-10 20:55N 50°06' W 002°16'512.1
2018-Feb-10 20:30N 50°07' W 002°09'611.7
2018-Feb-10 20:00N 50°09' W 002°00'611.5
2018-Feb-10 19:30N 50°11' W 001°52'510.9
2018-Feb-10 19:01N 50°12' W 001°44'510.3
2018-Feb-10 18:30N 50°14' W 001°36'510.0
2018-Feb-10 18:00N 50°15' W 001°28'5 9.6
2018-Feb-10 17:30N 50°16' W 001°21'5 9.8
2018-Feb-10 17:00N 50°17' W 001°13'3210.4
2018-Feb-10 13:58N 50°26' W 000°26'711.8
2018-Feb-10 13:23N 50°28' W 000°15'512.3
2018-Feb-10 13:00N 50°30' W 000°09'612.4
2018-Feb-10 12:30N 50°32' E 000°01'612.6
2018-Feb-10 12:00N 50°33' E 000°11'612.9
2018-Feb-10 11:30N 50°35' E 000°20'612.9
2018-Feb-10 11:00N 50°36' E 000°30'713.0
2018-Feb-10 10:30N 50°38' E 000°40'713.2
2018-Feb-10 10:00N 50°42' E 000°48'713.1
2018-Feb-10 09:30N 50°46' E 000°56'712.9
2018-Feb-10 08:57N 50°51' E 001°05'612.7
2018-Feb-10 08:29N 50°55' E 001°12'612.5
2018-Feb-10 07:59N 50°60' E 001°19'612.3
2018-Feb-10 07:30N 51°03' E 001°26'612.7
2018-Feb-10 07:00N 51°08' E 001°33'613.0
2018-Feb-10 06:30N 51°12' E 001°41'713.2
2018-Feb-10 06:00N 51°17' E 001°48'714.3
2018-Feb-10 05:31N 51°23' E 001°53'714.3
2018-Feb-10 05:00N 51°29' E 001°59'714.6
2018-Feb-10 04:31N 51°35' E 002°07'714.7
2018-Feb-10 04:00N 51°40' E 002°16'714.7
2018-Feb-10 03:30N 51°45' E 002°24'1614.3
2018-Feb-10 02:23N 51°57' E 002°42'513.9
2018-Feb-10 02:00N 52°00' E 002°48'612.4
2018-Feb-10 01:29N 52°02' E 002°58'612.4
2018-Feb-10 01:00N 52°03' E 003°08'612.5
2018-Feb-10 00:30N 52°03' E 003°18'712.1
2018-Feb-09 23:56N 52°07' E 003°27'511.6
2018-Feb-09 23:29N 52°09' E 003°35'1 0.7
2018-Feb-09 22:48N 52°09' E 003°36'0 0.0
2018-Feb-09 22:42N 52°09' E 003°36'4 0.1
2018-Feb-08 01:11N 52°05' E 003°41'210.8
2018-Feb-08 01:00N 52°05' E 003°44'510.6
2018-Feb-08 00:30N 52°03' E 003°52'4 7.6
2018-Feb-08 00:00N 52°02' E 003°58'713.1
2018-Feb-07 23:30N 51°59' E 004°07'714.2
2018-Feb-07 23:01N 51°54' E 004°16'3 5.5
2018-Feb-07 22:29N 51°53' E 004°21'0 0.0
2018-Feb-07 21:56N 51°53' E 004°21'0 0.0
2018-Feb-07 21:29N 51°53' E 004°21'0 0.0
2018-Feb-07 09:28N 51°53' E 004°21'0 0.0
2018-Feb-07 08:58N 51°53' E 004°21'0 0.0
2018-Feb-07 08:28N 51°53' E 004°21'0 0.0
2018-Feb-07 07:58N 51°53' E 004°21'0 0.0
2018-Feb-07 07:25N 51°53' E 004°21'0 0.0
2018-Feb-07 06:43N 51°53' E 004°21'0 0.0
2018-Feb-07 06:13N 51°53' E 004°21'0 0.0
2018-Feb-07 05:58N 51°53' E 004°21'0 0.0
2018-Feb-07 05:28N 51°53' E 004°21'0 0.0
2018-Feb-07 04:52N 51°53' E 004°21'0 0.0
2018-Feb-07 04:28N 51°53' E 004°21'0 0.0
2018-Feb-07 03:55N 51°53' E 004°21'0 0.0
2018-Feb-07 03:19N 51°53' E 004°21'0 0.0
2018-Feb-07 02:58N 51°53' E 004°21'0 0.0
2018-Feb-07 02:25N 51°53' E 004°21'0 0.0
2018-Feb-07 01:58N 51°53' E 004°21'0 0.0
2018-Feb-07 01:25N 51°53' E 004°21'0 0.0
2018-Feb-07 00:58N 51°53' E 004°21'0 0.0
2018-Feb-07 00:28N 51°53' E 004°21'0 0.0
2018-Feb-06 23:58N 51°53' E 004°21'0 0.0
2018-Feb-06 23:28N 51°53' E 004°21'0 0.0
2018-Feb-06 22:58N 51°53' E 004°21'0 0.0
2018-Feb-06 22:22N 51°53' E 004°21'0 0.0
2018-Feb-06 21:52N 51°53' E 004°21'0 0.0
2018-Feb-06 21:28N 51°53' E 004°21'0 0.0
2018-Feb-06 20:58N 51°53' E 004°21'0 0.0
2018-Feb-06 20:25N 51°53' E 004°21'0 0.0
2018-Feb-06 19:55N 51°53' E 004°21'0 0.0
2018-Feb-06 19:25N 51°53' E 004°21'0 0.0
2018-Feb-06 18:52N 51°53' E 004°21'0 0.0
2018-Feb-06 18:28N 51°53' E 004°21'0 0.0
2018-Feb-06 17:58N 51°53' E 004°21'0 0.0
2018-Feb-06 17:28N 51°53' E 004°21'0 0.0
2018-Feb-06 16:58N 51°53' E 004°21'0 0.0
2018-Feb-06 16:25N 51°53' E 004°21'0 0.0
2018-Feb-06 15:52N 51°53' E 004°21'0 0.0
2018-Feb-06 15:25N 51°53' E 004°21'0 0.0
2018-Feb-06 14:58N 51°53' E 004°21'0 0.0
2018-Feb-06 14:28N 51°53' E 004°21'0 0.0
2018-Feb-06 13:55N 51°53' E 004°21'0 0.0
2018-Feb-06 13:19N 51°53' E 004°21'0 0.0
2018-Feb-06 12:55N 51°53' E 004°21'0 0.0
2018-Feb-06 12:27N 51°53' E 004°21'0 0.0
2018-Feb-06 12:00N 51°53' E 004°21'0 0.0
2018-Feb-06 11:24N 51°53' E 004°21'0 0.0
2018-Feb-06 11:00N 51°53' E 004°21'0 0.0
2018-Feb-06 10:30N 51°53' E 004°21'0 0.0
2018-Feb-06 10:00N 51°53' E 004°21'0 0.0
2018-Feb-06 09:30N 51°53' E 004°21'0 0.0
2018-Feb-06 09:00N 51°53' E 004°21'  

Dump ship's entire track history